This is the latest recevied weather packets stored in our database for station/object F4BBI-13. If no packets are shown the sender has not sent any weather packets the latest 1 day(s).
| Time | Temp. | Humidity | Pressure | Rain* | Wind** | Luminosity | Snow |
|---|---|---|---|---|---|---|---|
| 1778005124 | 11.67° C | 80% | 944 hPa | 0 mm | 0 m/s | 5 W/m² | - |
| 1778004520 | 12.22° C | 80% | 944 hPa | 0 mm | 0 m/s | 8 W/m² | - |
| 1778003916 | 12.78° C | 81% | 944 hPa | 0 mm | 0 m/s | 13 W/m² | - |
| 1778003311 | 12.78° C | 81% | 944 hPa | 0 mm | 0 m/s | 38 W/m² | - |
| 1778002707 | 12.78° C | 80% | 944 hPa | 0 mm | 0 m/s | 22 W/m² | - |
| 1778002103 | 12.78° C | 79% | 944 hPa | 0 mm | 0 m/s | 17 W/m² | - |
| 1778001498 | 12.78° C | 78% | 944 hPa | 0 mm | 0 m/s | 18 W/m² | - |
| 1778000894 | 13.33° C | 76% | 944 hPa | 0 mm | 0 m/s | 19 W/m² | - |
| 1778000290 | 13.89° C | 74% | 944 hPa | 0 mm | 0 m/s | 37 W/m² | - |
| 1777999685 | 14.44° C | 70% | 944 hPa | 0 mm | 0.45 m/s, 145° | 25 W/m² | - |
| 1777999081 | 15.56° C | 63% | 944 hPa | 0 mm | 0.45 m/s, 76° | 53 W/m² | - |
| 1777998477 | 18.33° C | 58% | 944 hPa | 0 mm | 0 m/s | 41 W/m² | - |
| 1777997873 | 18.89° C | 71% | 944 hPa | 0 mm | 0 m/s | 85 W/m² | - |
| 1777997268 | 15.56° C | 70% | 944 hPa | 0 mm | 0 m/s | 104 W/m² | - |
| 1777996664 | 15° C | 69% | 944 hPa | 0 mm | 0.45 m/s, 104° | 100 W/m² | - |
| 1777996060 | 16.67° C | 65% | 944 hPa | 0 mm | 0 m/s | 53 W/m² | - |
| 1777995455 | 17.22° C | 66% | 944 hPa | 0 mm | 0.45 m/s, 52° | 145 W/m² | - |
| 1777994851 | 17.78° C | 60% | 944 hPa | 0 mm | 0 m/s | 69 W/m² | - |
| 1777994247 | 18.89° C | 61% | 944 hPa | 0 mm | 0.45 m/s, 122° | 314 W/m² | - |
| 1777993642 | 18.33° C | 64% | 944 hPa | 0 mm | 0 m/s | 149 W/m² | - |
| 1777993046 | 17.22° C | 69% | 944 hPa | 0 mm | 0 m/s | 266 W/m² | - |
| 1777992434 | 16.11° C | 70% | 944 hPa | 0 mm | 0.45 m/s, 120° | 172 W/m² | - |
| 1777991830 | 16.67° C | 68% | 944 hPa | 0 mm | 0 m/s | 99 W/m² | - |
| 1777991225 | 17.22° C | 64% | 944 hPa | 0 mm | 0 m/s | 89 W/m² | - |
| 1777990621 | 18.33° C | 65% | 944 hPa | 0 mm | 0 m/s | 487 W/m² | - |
* Rain latest hour (hover to see other rain measurements)
** Current wind speed in m/s (hover to see current wind gust speed)